Terminal Aerodrome Forecast
Issued by NWS Sterling, VA

Home | Current Version | Previous Version | Text Only | Print | Product List | Glossary On
Versions: 1 2 3 4 5 6 7 8 9 10 11 12
000
FTUS41 KLWX 221700 RRA
TAFMRB
TAF
KMRB 221745Z 2218/2318 VRB03KT 6SM -FZRA BR BKN025 OVC050
     FM222200 VRB03KT 5SM -FZRA BR OVC015
     FM230300 VRB03KT 2SM -DZ BR BKN008
     FM230700 VRB03KT 3SM -DZ BR OVC003
     FM231500 VRB03KT 3SM -DZ BR OVC008=

USA.gov is the U.S. government's official web portal to all federal, state and local government web resources and services.